Time;durP1;ratioP1;P1;durP2;ratioP2;P2;SDS_P1;SDS_P2;PMS_P1;PMS_P2;Temp;Humidity;BMP_temperature;BMP_pressure;BME280_temperature;BME280_humidity;BME280_pressure;Samples;Min_cycle;Max_cycle;Signal;HPM_P1;HPM_P2
2022/08/07 00:00:27;;;;;;;5.30;3.80;;;14.70;99.90;;;;;;4983736;28;20049;-78
2022/08/07 00:02:55;;;;;;;5.20;3.90;;;14.70;99.90;;;;;;4975654;28;20064;-78
2022/08/07 00:05:22;;;;;;;5.50;4.00;;;14.70;99.90;;;;;;5000170;28;20353;-78
2022/08/07 00:07:47;;;;;;;4.88;3.88;;;14.70;99.90;;;;;;4986549;28;20060;-76
2022/08/07 00:10:14;;;;;;;5.72;3.30;;;14.70;99.90;;;;;;4996333;28;20037;-78
2022/08/07 00:12:40;;;;;;;6.38;4.05;;;14.70;99.90;;;;;;4971703;28;20055;-78
2022/08/07 00:15:06;;;;;;;6.18;3.70;;;14.70;99.90;;;;;;4998535;28;20041;-79
2022/08/07 00:17:32;;;;;;;6.70;3.35;;;14.60;99.90;;;;;;4983888;28;20115;-79
2022/08/07 00:19:58;;;;;;;5.13;3.70;;;14.60;99.90;;;;;;4982808;28;20438;-80
2022/08/07 00:22:23;;;;;;;4.25;3.38;;;14.60;99.90;;;;;;4974057;28;20497;-78
2022/08/07 00:24:49;;;;;;;4.78;3.40;;;14.60;99.90;;;;;;4973617;28;20132;-79
2022/08/07 00:27:15;;;;;;;6.15;3.25;;;14.60;99.90;;;;;;4982897;28;20057;-78
2022/08/07 00:29:40;;;;;;;6.65;4.07;;;14.60;99.90;;;;;;4986239;28;20046;-78
2022/08/07 00:32:06;;;;;;;4.38;3.78;;;14.50;99.90;;;;;;4988272;28;20041;-78
2022/08/07 00:34:32;;;;;;;4.63;4.15;;;14.50;99.90;;;;;;4982319;28;20045;-79
2022/08/07 00:36:58;;;;;;;5.32;4.10;;;14.50;99.90;;;;;;4967039;28;20049;-79
2022/08/07 00:39:23;;;;;;;9.55;4.60;;;14.50;99.90;;;;;;4981976;28;20134;-78
2022/08/07 00:41:54;;;;;;;6.20;4.57;;;14.40;99.90;;;;;;4998842;28;20073;-78
2022/08/07 00:44:20;;;;;;;6.80;4.10;;;14.40;99.90;;;;;;4997181;28;20592;-79
2022/08/07 00:46:46;;;;;;;5.50;4.25;;;14.40;99.90;;;;;;4993509;28;20050;-78
2022/08/07 00:49:13;;;;;;;5.35;4.45;;;14.40;99.90;;;;;;4963293;28;20042;-78
2022/08/07 00:51:39;;;;;;;6.57;4.32;;;14.40;99.90;;;;;;4979787;28;20041;-79
2022/08/07 00:54:06;;;;;;;6.00;4.68;;;14.40;99.90;;;;;;4965589;28;20061;-80
2022/08/07 00:56:33;;;;;;;5.65;4.43;;;14.40;99.90;;;;;;4985762;28;20042;-79
2022/08/07 00:58:59;;;;;;;5.32;3.95;;;14.50;99.90;;;;;;4983302;28;20050;-78
2022/08/07 01:01:25;;;;;;;5.18;3.85;;;14.50;99.90;;;;;;4990806;28;20052;-77
2022/08/07 01:03:51;;;;;;;6.60;4.60;;;14.50;99.90;;;;;;4976797;28;20054;-79
2022/08/07 01:06:17;;;;;;;4.45;3.25;;;14.40;99.90;;;;;;4978962;28;20054;-79
2022/08/07 01:08:44;;;;;;;5.53;4.18;;;14.40;99.90;;;;;;4978872;28;20057;-79
2022/08/07 01:11:12;;;;;;;5.07;3.90;;;14.40;99.90;;;;;;4995453;28;20129;-79
2022/08/07 01:13:38;;;;;;;4.85;3.65;;;14.30;99.90;;;;;;4980235;28;20061;-79
2022/08/07 01:16:06;;;;;;;6.07;3.95;;;14.30;99.90;;;;;;4993155;28;20100;-79
2022/08/07 01:18:32;;;;;;;6.40;4.03;;;14.30;99.90;;;;;;4969065;28;20100;-78
2022/08/07 01:21:11;;;;;;;4.80;4.30;;;14.30;99.90;;;;;;4981728;28;20457;-77
2022/08/07 01:23:39;;;;;;;5.00;4.28;;;14.30;99.90;;;;;;4982199;28;20133;-76
2022/08/07 01:26:06;;;;;;;5.03;4.28;;;14.20;99.90;;;;;;4993507;28;20329;-80
2022/08/07 01:28:32;;;;;;;5.47;4.32;;;14.10;99.90;;;;;;4969284;28;20136;-79
2022/08/07 01:31:00;;;;;;;4.22;3.55;;;14.20;99.90;;;;;;4960294;28;20053;-78
2022/08/07 01:33:26;;;;;;;5.18;4.30;;;14.10;99.90;;;;;;4976996;28;20073;-79
2022/08/07 01:35:52;;;;;;;6.10;4.20;;;14.10;99.90;;;;;;4964805;28;20077;-79
2022/08/07 01:38:19;;;;;;;6.60;4.38;;;14.10;99.90;;;;;;4994267;28;20414;-79
2022/08/07 01:40:46;;;;;;;6.22;4.65;;;14.10;99.90;;;;;;4967515;28;20042;-78
2022/08/07 01:43:12;;;;;;;4.47;3.75;;;14.10;99.90;;;;;;4979015;28;21155;-79
2022/08/07 01:45:38;;;;;;;4.75;4.25;;;14.10;99.90;;;;;;4967824;28;20501;-79
2022/08/07 01:48:05;;;;;;;6.70;4.10;;;14.10;99.90;;;;;;4983392;28;20072;-80
2022/08/07 01:50:31;;;;;;;6.72;4.38;;;13.30;99.90;;;;;;4996747;28;20056;-79
2022/08/07 01:52:59;;;;;;;5.28;4.45;;;14.00;99.90;;;;;;4997056;28;20048;-79
2022/08/07 01:55:27;;;;;;;5.78;4.38;;;14.00;99.90;;;;;;4981304;28;20088;-79
2022/08/07 01:57:56;;;;;;;4.68;4.22;;;14.00;99.90;;;;;;4997055;28;20188;-79
2022/08/07 02:00:26;;;;;;;5.65;4.65;;;14.00;99.90;;;;;;4996157;28;20068;-78
2022/08/07 02:02:55;;;;;;;5.45;4.20;;;14.00;99.90;;;;;;4998698;28;20069;-79
2022/08/07 02:05:40;;;;;;;6.85;4.35;;;13.90;99.90;;;;;;4985141;28;20053;-78
2022/08/07 02:08:09;;;;;;;4.47;4.05;;;13.90;99.90;;;;;;4997506;28;20712;-79
2022/08/07 02:10:38;;;;;;;5.63;4.30;;;14.60;99.90;;;;;;4984759;28;20110;-75
2022/08/07 02:13:05;;;;;;;5.47;4.20;;;13.80;99.90;;;;;;4999511;28;20129;-78
2022/08/07 02:15:31;;;;;;;5.43;4.10;;;13.80;99.90;;;;;;4986458;28;20331;-79
2022/08/07 02:17:58;;;;;;;4.70;3.92;;;13.70;99.90;;;;;;4987583;28;20053;-76
2022/08/07 02:20:24;;;;;;;8.52;3.80;;;13.70;99.90;;;;;;5014093;28;20656;-79
2022/08/07 02:22:54;;;;;;;4.78;4.18;;;13.70;99.90;;;;;;4985102;28;20046;-79
2022/08/07 02:25:22;;;;;;;4.90;3.75;;;13.70;99.90;;;;;;4985615;28;20494;-78
2022/08/07 02:27:48;;;;;;;5.47;4.05;;;13.60;99.90;;;;;;4996608;28;20046;-75
2022/08/07 02:30:14;;;;;;;5.35;4.05;;;13.60;99.90;;;;;;4966293;28;20054;-78
2022/08/07 02:32:41;;;;;;;5.50;4.38;;;13.60;99.90;;;;;;4959550;28;20068;-78
2022/08/07 02:35:09;;;;;;;5.95;4.13;;;13.60;99.90;;;;;;4972019;28;20088;-79
2022/08/07 02:37:38;;;;;;;6.05;4.55;;;13.60;99.90;;;;;;4989475;28;20049;-79
2022/08/07 02:40:07;;;;;;;5.88;4.30;;;13.60;99.90;;;;;;4999500;28;20168;-79
2022/08/07 02:42:33;;;;;;;5.00;4.38;;;13.60;99.90;;;;;;4989943;28;20048;-79
2022/08/07 02:45:02;;;;;;;4.70;4.20;;;13.50;99.90;;;;;;4974030;28;20057;-79
2022/08/07 02:47:28;;;;;;;6.30;4.70;;;13.50;99.90;;;;;;4984552;28;20651;-78
2022/08/07 02:49:54;;;;;;;5.88;4.80;;;13.50;99.90;;;;;;4984343;28;20053;-79
2022/08/07 02:52:25;;;;;;;6.13;4.60;;;13.50;99.90;;;;;;4975581;28;20045;-79
2022/08/07 02:54:52;;;;;;;6.95;4.85;;;13.50;99.90;;;;;;5007221;28;20049;-79
2022/08/07 02:57:21;;;;;;;6.30;5.25;;;13.50;99.90;;;;;;4987039;28;20053;-79
2022/08/07 02:59:49;;;;;;;5.47;4.70;;;13.50;99.90;;;;;;4989367;28;20159;-78
2022/08/07 03:02:15;;;;;;;7.10;5.20;;;13.50;99.90;;;;;;4980562;28;20117;-78
2022/08/07 03:04:44;;;;;;;5.68;5.07;;;13.50;99.90;;;;;;5006547;28;20052;-79
2022/08/07 03:07:11;;;;;;;6.72;5.07;;;13.50;99.90;;;;;;4989361;28;20483;-79
2022/08/07 03:09:37;;;;;;;5.32;4.47;;;13.50;99.90;;;;;;4969902;28;20145;-79
2022/08/07 03:12:04;;;;;;;5.93;4.63;;;13.50;99.90;;;;;;4988151;28;20107;-79
2022/08/07 03:14:31;;;;;;;4.85;4.35;;;13.50;99.90;;;;;;5017278;28;20057;-79
2022/08/07 03:16:57;;;;;;;5.97;4.22;;;13.50;99.90;;;;;;5000202;28;20510;-77
2022/08/07 03:19:24;;;;;;;5.88;4.47;;;13.50;99.90;;;;;;4984233;28;20108;-77
2022/08/07 03:21:51;;;;;;;6.38;5.03;;;13.50;99.90;;;;;;4982307;28;20053;-78
2022/08/07 03:24:17;;;;;;;6.30;4.95;;;13.40;99.90;;;;;;4990135;28;20071;-79
2022/08/07 03:26:44;;;;;;;6.07;5.40;;;13.40;99.90;;;;;;5004475;28;20467;-78
2022/08/07 03:29:12;;;;;;;5.78;4.50;;;13.40;99.90;;;;;;5016777;28;20085;-78
2022/08/07 03:31:40;;;;;;;7.00;4.80;;;13.40;99.90;;;;;;4968889;28;20536;-79
2022/08/07 03:34:09;;;;;;;5.68;4.30;;;13.40;99.90;;;;;;5002348;28;20057;-79
2022/08/07 03:36:38;;;;;;;5.80;4.68;;;13.40;99.90;;;;;;4999042;28;20045;-79
2022/08/07 03:39:08;;;;;;;6.40;4.28;;;13.40;99.90;;;;;;4989665;28;20426;-79
2022/08/07 03:41:36;;;;;;;7.35;4.28;;;13.40;99.90;;;;;;4980898;28;20119;-79
2022/08/07 03:44:02;;;;;;;5.43;4.70;;;13.30;99.90;;;;;;4987631;28;20054;-79
2022/08/07 03:46:29;;;;;;;6.05;4.45;;;13.40;99.90;;;;;;4998692;28;20136;-79
2022/08/07 03:48:55;;;;;;;5.22;4.53;;;13.30;99.90;;;;;;4982875;28;20054;-78
2022/08/07 03:51:21;;;;;;;6.05;4.88;;;13.30;99.90;;;;;;4972631;28;20037;-78
2022/08/07 03:53:47;;;;;;;8.25;5.05;;;13.30;99.90;;;;;;4965844;28;20057;-79
2022/08/07 03:56:19;;;;;;;6.90;5.03;;;13.40;99.90;;;;;;4987736;28;20054;-76
2022/08/07 03:58:45;;;;;;;7.60;5.10;;;13.30;99.90;;;;;;4999509;28;20045;-78
2022/08/07 04:01:13;;;;;;;7.03;5.25;;;13.30;99.90;;;;;;4998066;28;20119;-78
2022/08/07 04:03:39;;;;;;;7.15;5.63;;;13.30;99.90;;;;;;4988040;28;20059;-78
2022/08/07 04:06:09;;;;;;;6.60;5.13;;;13.30;99.90;;;;;;4999237;28;20078;-79
2022/08/07 04:08:36;;;;;;;6.05;5.30;;;13.30;99.90;;;;;;4973492;28;20133;-79
2022/08/07 04:11:03;;;;;;;7.50;5.45;;;13.30;99.90;;;;;;4985509;28;20038;-79
2022/08/07 04:13:29;;;;;;;7.75;5.13;;;13.30;99.90;;;;;;4986757;28;20061;-79
2022/08/07 04:15:54;;;;;;;6.10;4.70;;;13.30;99.90;;;;;;4971191;28;20399;-79
2022/08/07 04:18:20;;;;;;;6.63;5.50;;;13.20;99.90;;;;;;4972848;28;20049;-79
2022/08/07 04:20:46;;;;;;;6.85;5.13;;;13.20;99.90;;;;;;4987307;28;20046;-78
2022/08/07 04:23:13;;;;;;;6.75;4.68;;;13.20;99.90;;;;;;4990572;28;20041;-79
2022/08/07 04:25:40;;;;;;;7.22;5.10;;;13.20;99.90;;;;;;4997939;28;20853;-78
2022/08/07 04:28:09;;;;;;;6.07;4.95;;;13.20;99.90;;;;;;4984087;28;20078;-79
2022/08/07 04:30:35;;;;;;;6.65;4.93;;;13.20;99.90;;;;;;4971161;28;20121;-79
2022/08/07 04:33:07;;;;;;;6.38;5.18;;;13.20;99.90;;;;;;4957283;28;20049;-79
2022/08/07 04:35:33;;;;;;;7.10;5.13;;;13.20;99.90;;;;;;4998947;28;20126;-79
2022/08/07 04:37:59;;;;;;;6.07;4.45;;;13.20;99.90;;;;;;4974684;28;20053;-79
2022/08/07 04:40:25;;;;;;;7.65;4.97;;;13.20;99.90;;;;;;4971464;28;20045;-78
2022/08/07 04:42:50;;;;;;;6.47;5.07;;;13.20;99.90;;;;;;5001888;28;20468;-78
2022/08/07 04:45:17;;;;;;;7.35;5.35;;;13.20;99.90;;;;;;4982654;28;20057;-79
2022/08/07 04:48:05;;;;;;;5.85;5.07;;;13.20;99.90;;;;;;4970338;28;20076;-79
2022/08/07 04:50:44;;;;;;;10.05;4.65;;;13.20;99.90;;;;;;4995000;28;20427;-79
2022/08/07 04:53:17;;;;;;;6.05;5.20;;;13.20;99.90;;;;;;4982245;28;20092;-78
2022/08/07 04:55:54;;;;;;;6.32;5.07;;;13.20;99.90;;;;;;4993635;28;20045;-79
2022/08/07 04:58:30;;;;;;;8.02;4.85;;;13.20;99.90;;;;;;4986463;28;20042;-78
2022/08/07 05:01:05;;;;;;;7.80;4.90;;;13.20;99.90;;;;;;4997254;28;20125;-78
2022/08/07 05:03:40;;;;;;;10.68;5.20;;;13.30;99.90;;;;;;4995454;28;20121;-78
2022/08/07 05:06:11;;;;;;;6.32;4.90;;;13.30;99.90;;;;;;4983059;28;20064;-79
2022/08/07 05:09:01;;;;;;;5.75;5.13;;;13.40;99.90;;;;;;5001134;28;20060;-80
2022/08/07 05:11:32;;;;;;;8.00;5.25;;;13.30;99.90;;;;;;4998415;28;20039;-80
2022/08/07 05:14:17;;;;;;;7.97;4.85;;;13.40;99.90;;;;;;5016018;28;20078;-80
2022/08/07 05:16:46;;;;;;;6.93;5.35;;;13.40;99.90;;;;;;4996552;28;20046;-80
2022/08/07 05:19:18;;;;;;;5.97;5.03;;;13.40;99.90;;;;;;4991113;28;20049;-79
2022/08/07 05:21:48;;;;;;;7.05;4.63;;;13.50;99.90;;;;;;5005219;28;20117;-79
2022/08/07 05:24:16;;;;;;;7.50;5.72;;;13.50;99.90;;;;;;4993401;28;20053;-80
2022/08/07 05:26:45;;;;;;;5.40;4.70;;;13.60;99.90;;;;;;4987679;28;20041;-79
2022/08/07 05:29:14;;;;;;;5.50;4.90;;;13.60;99.90;;;;;;4999031;28;20406;-81
2022/08/07 05:31:42;;;;;;;5.47;4.43;;;13.70;99.90;;;;;;4990959;28;20049;-81
2022/08/07 05:34:10;;;;;;;7.97;4.90;;;13.70;99.90;;;;;;4987988;28;20050;-80
2022/08/07 05:36:39;;;;;;;6.93;4.53;;;13.80;99.90;;;;;;4989898;28;20042;-80
2022/08/07 05:39:06;;;;;;;6.07;4.60;;;13.80;99.90;;;;;;5002203;28;20054;-81
2022/08/07 05:41:32;;;;;;;6.32;4.60;;;13.90;99.90;;;;;;4982227;28;20526;-80
2022/08/07 05:43:58;;;;;;;5.00;4.07;;;13.90;99.90;;;;;;4978264;28;20132;-80
2022/08/07 05:46:24;;;;;;;5.95;4.65;;;13.90;99.90;;;;;;4969257;28;20420;-80
2022/08/07 05:48:51;;;;;;;5.95;4.72;;;14.00;99.90;;;;;;4995074;28;20197;-81
2022/08/07 05:51:19;;;;;;;6.90;5.00;;;14.10;99.90;;;;;;4986437;28;20069;-81
2022/08/07 05:53:45;;;;;;;7.50;5.35;;;14.20;99.90;;;;;;5003020;28;20042;-82
2022/08/07 05:56:14;;;;;;;6.97;4.97;;;14.20;99.90;;;;;;4956722;28;20140;-80
2022/08/07 05:58:40;;;;;;;6.40;4.57;;;14.30;99.90;;;;;;5016760;28;20049;-80
2022/08/07 06:01:09;;;;;;;6.53;5.45;;;14.40;99.90;;;;;;4982332;28;20053;-80
2022/08/07 06:03:37;;;;;;;6.18;4.88;;;14.50;99.90;;;;;;4997935;28;20061;-81
2022/08/07 06:06:05;;;;;;;6.72;5.38;;;14.60;99.90;;;;;;4985663;28;20073;-81
2022/08/07 06:08:32;;;;;;;6.13;5.25;;;14.60;99.90;;;;;;4966188;28;20057;-83
2022/08/07 06:10:58;;;;;;;6.60;5.18;;;14.70;99.90;;;;;;4987953;28;20132;-79
2022/08/07 06:13:24;;;;;;;8.25;5.40;;;14.90;99.90;;;;;;4993955;28;20042;-81
2022/08/07 06:15:50;;;;;;;7.85;5.95;;;15.00;99.90;;;;;;4984597;28;20046;-82
2022/08/07 06:18:17;;;;;;;7.53;4.95;;;15.10;99.90;;;;;;4987512;28;20053;-81
2022/08/07 06:20:44;;;;;;;7.05;5.43;;;15.20;99.90;;;;;;4999868;28;20149;-80
2022/08/07 06:23:10;;;;;;;7.20;5.68;;;15.30;99.90;;;;;;4984866;28;21852;-81
2022/08/07 06:25:38;;;;;;;7.45;5.10;;;15.40;99.90;;;;;;4970836;28;20488;-82
2022/08/07 06:28:07;;;;;;;9.40;5.88;;;15.50;99.90;;;;;;4971477;28;20061;-83
2022/08/07 06:30:34;;;;;;;7.20;5.13;;;15.70;99.90;;;;;;4987313;28;20053;-83
2022/08/07 06:33:00;;;;;;;6.95;5.13;;;15.80;99.90;;;;;;4973968;28;20496;-80
2022/08/07 06:35:26;;;;;;;6.30;5.38;;;16.00;99.90;;;;;;4982668;28;20395;-81
2022/08/07 06:37:52;;;;;;;6.03;4.57;;;16.00;99.90;;;;;;4968667;28;20040;-82
2022/08/07 06:40:18;;;;;;;6.75;5.00;;;16.20;99.90;;;;;;4969480;28;20054;-81
2022/08/07 06:42:47;;;;;;;6.22;4.88;;;16.30;99.90;;;;;;4982187;28;20042;-80
2022/08/07 06:45:15;;;;;;;5.70;4.63;;;16.40;99.90;;;;;;4989370;28;20161;-81
2022/08/07 06:47:42;;;;;;;6.22;4.53;;;16.60;99.90;;;;;;4978800;28;20053;-81
2022/08/07 06:50:08;;;;;;;6.35;5.10;;;16.70;99.90;;;;;;4999882;28;20042;-80
2022/08/07 06:52:37;;;;;;;7.55;5.15;;;16.40;99.90;;;;;;4985693;28;20126;-81
2022/08/07 06:55:14;;;;;;;6.45;4.63;;;16.90;99.90;;;;;;5001939;28;20046;-79
2022/08/07 06:57:43;;;;;;;5.05;4.07;;;17.10;99.90;;;;;;4984800;28;20050;-77
2022/08/07 07:00:09;;;;;;;6.32;4.50;;;17.20;99.90;;;;;;4997721;28;20080;-78
2022/08/07 07:02:36;;;;;;;5.35;4.10;;;17.30;99.90;;;;;;4981986;28;20049;-80
2022/08/07 07:05:03;;;;;;;6.30;4.38;;;17.60;99.90;;;;;;4968679;28;20153;-77
2022/08/07 07:07:28;;;;;;;5.10;4.13;;;17.70;99.90;;;;;;4998481;28;20395;-77
2022/08/07 07:09:54;;;;;;;5.32;4.30;;;17.80;99.90;;;;;;4981868;28;20052;-76
2022/08/07 07:12:50;;;;;;;7.20;3.90;;;18.00;99.90;;;;;;4982219;28;20046;-76
2022/08/07 07:15:28;;;;;;;5.35;3.63;;;18.20;99.90;;;;;;4990708;28;20122;-78
2022/08/07 07:18:17;;;;;;;5.93;3.72;;;18.40;99.90;;;;;;4999540;28;20565;-80
2022/08/07 07:20:49;;;;;;;3.88;2.80;;;18.60;99.90;;;;;;4998555;28;20085;-79
2022/08/07 07:23:17;;;;;;;3.90;2.80;;;18.80;99.90;;;;;;4991939;28;20120;-78
2022/08/07 07:25:44;;;;;;;4.68;2.85;;;19.00;99.90;;;;;;4984923;28;20137;-78
2022/08/07 07:28:36;;;;;;;6.50;2.58;;;19.00;99.90;;;;;;4985011;28;20616;-78
2022/08/07 07:31:39;;;;;;;3.72;2.97;;;19.20;99.90;;;;;;5001912;28;20100;-79
2022/08/07 07:34:09;;;;;;;3.28;2.22;;;19.40;99.90;;;;;;4989880;28;20061;-81
2022/08/07 07:36:38;;;;;;;4.10;2.00;;;19.50;99.90;;;;;;5001738;28;20050;-78
2022/08/07 07:39:05;;;;;;;3.35;1.98;;;19.50;99.90;;;;;;5004462;28;20520;-77
2022/08/07 07:41:35;;;;;;;3.33;1.83;;;19.50;99.90;;;;;;4971747;28;20129;-78
2022/08/07 07:44:02;;;;;;;5.63;2.10;;;19.50;99.90;;;;;;4973052;28;20049;-75
2022/08/07 07:46:30;;;;;;;3.92;2.08;;;19.40;99.90;;;;;;4986662;28;20530;-78
2022/08/07 07:48:59;;;;;;;3.83;1.90;;;19.50;99.90;;;;;;5001774;28;20050;-78
2022/08/07 07:51:27;;;;;;;3.65;1.98;;;19.60;99.90;;;;;;4987707;28;20563;-77
2022/08/07 07:53:54;;;;;;;5.65;2.17;;;19.80;99.90;;;;;;4986194;28;20062;-78
2022/08/07 07:56:23;;;;;;;2.92;1.70;;;19.90;99.90;;;;;;5015814;28;20116;-77
2022/08/07 07:58:49;;;;;;;4.40;1.63;;;20.20;99.90;;;;;;5016889;28;20041;-78
2022/08/07 08:01:16;;;;;;;3.80;1.60;;;20.40;99.90;;;;;;4986237;28;20460;-77
2022/08/07 08:03:43;;;;;;;3.78;1.88;;;20.50;99.90;;;;;;4993332;28;20042;-76
2022/08/07 08:06:11;;;;;;;4.45;1.90;;;20.70;99.90;;;;;;4994718;28;20054;-77
2022/08/07 08:08:40;;;;;;;3.28;1.60;;;20.70;99.90;;;;;;5006652;28;20076;-76
2022/08/07 08:11:08;;;;;;;5.07;1.70;;;20.90;99.90;;;;;;4985895;28;20050;-78
2022/08/07 08:13:38;;;;;;;2.47;1.58;;;20.80;99.90;;;;;;5007222;28;20439;-76
2022/08/07 08:16:05;;;;;;;3.20;1.90;;;20.70;99.90;;;;;;4987695;28;20057;-76
2022/08/07 08:18:33;;;;;;;2.70;1.60;;;20.70;99.90;;;;;;4993308;28;20077;-76
2022/08/07 08:21:01;;;;;;;3.30;1.90;;;20.70;99.90;;;;;;4984807;28;20057;-79
2022/08/07 08:29:03;;;;;;;3.05;1.55;;;21.00;99.90;;;;;;4999947;28;20388;-81
2022/08/07 08:31:32;;;;;;;4.22;1.45;;;21.20;99.90;;;;;;4997431;28;20066;-80
2022/08/07 08:34:00;;;;;;;5.03;1.50;;;21.40;99.90;;;;;;4988090;28;20057;-78
2022/08/07 08:36:30;;;;;;;2.38;1.48;;;21.40;99.90;;;;;;5003692;28;20059;-78
2022/08/07 08:38:58;;;;;;;3.30;1.58;;;21.50;99.90;;;;;;4988810;28;20539;-78
2022/08/07 08:41:29;;;;;;;3.80;1.30;;;21.60;99.90;;;;;;4988116;28;20053;-79
2022/08/07 08:44:07;;;;;;;2.17;1.33;;;21.70;99.90;;;;;;4987981;28;20061;-78
2022/08/07 08:46:43;;;;;;;3.03;1.33;;;21.80;99.90;;;;;;5002285;28;20054;-79
2022/08/07 08:49:24;;;;;;;2.70;1.67;;;22.00;99.90;;;;;;4995211;28;20065;-79
2022/08/07 08:52:11;;;;;;;2.63;1.40;;;22.20;99.90;;;;;;4997576;28;20404;-76
2022/08/07 08:55:01;;;;;;;2.65;1.10;;;22.20;99.90;;;;;;4978821;28;20077;-80
2022/08/07 08:57:37;;;;;;;2.70;1.25;;;22.40;99.90;;;;;;4996874;28;20038;-79
2022/08/07 09:00:09;;;;;;;3.80;1.58;;;22.50;99.80;;;;;;5014196;28;20039;-80
2022/08/07 09:02:38;;;;;;;2.00;1.10;;;22.40;99.60;;;;;;4987035;28;20041;-79
2022/08/07 09:05:26;;;;;;;2.03;1.00;;;22.50;99.60;;;;;;4993684;28;20049;-80
2022/08/07 09:08:10;;;;;;;2.47;1.20;;;22.60;98.70;;;;;;4995043;28;20136;-79
2022/08/07 09:11:11;;;;;;;2.65;1.05;;;22.50;98.50;;;;;;4987335;28;20057;-78
2022/08/07 09:13:58;;;;;;;4.00;1.48;;;22.70;97.70;;;;;;4989587;28;20522;-78
2022/08/07 09:16:46;;;;;;;2.20;1.23;;;22.90;98.60;;;;;;4985368;28;20057;-79
2022/08/07 09:19:49;;;;;;;2.85;1.20;;;23.10;97.00;;;;;;4981345;28;20057;-78
2022/08/07 09:22:33;;;;;;;2.63;1.30;;;23.30;97.20;;;;;;4976571;28;20060;-78
2022/08/07 09:25:13;;;;;;;2.83;1.20;;;23.40;96.20;;;;;;4985761;28;20050;-80
2022/08/07 09:27:45;;;;;;;2.58;1.20;;;23.40;96.70;;;;;;4988163;28;20045;-80
2022/08/07 09:30:13;;;;;;;2.60;1.10;;;23.20;96.60;;;;;;4984196;28;20100;-79
2022/08/07 09:33:23;;;;;;;2.80;1.20;;;23.30;96.60;;;;;;4969989;28;20046;-80
2022/08/07 09:36:08;;;;;;;1.77;1.10;;;23.30;94.70;;;;;;4991375;28;20061;-81
2022/08/07 09:38:50;;;;;;;2.63;1.53;;;23.50;94.80;;;;;;4996445;28;20042;-80
2022/08/07 09:41:34;;;;;;;2.33;1.45;;;23.40;94.50;;;;;;4982861;28;20803;-79
2022/08/07 09:44:06;;;;;;;4.57;1.48;;;23.50;94.50;;;;;;4997811;28;20085;-80
2022/08/07 09:47:00;;;;;;;2.42;1.60;;;23.60;95.40;;;;;;4984153;28;20068;-79
2022/08/07 09:49:53;;;;;;;2.63;1.40;;;23.70;94.50;;;;;;4974790;28;20069;-78
2022/08/07 09:52:29;;;;;;;3.38;1.50;;;23.80;94.80;;;;;;4990084;28;20034;-81
2022/08/07 09:54:58;;;;;;;;;;;24.00;95.20;;;;;;4973671;28;20078;-78
2022/08/07 09:57:29;;;;;;;3.55;1.90;;;24.20;95.00;;;;;;4992827;28;19926;-79
2022/08/07 10:00:12;;;;;;;2.97;1.85;;;24.50;95.50;;;;;;4989896;28;21065;-80
2022/08/07 10:03:19;;;;;;;3.63;1.73;;;24.90;94.40;;;;;;4984095;28;20103;-79
2022/08/07 10:06:23;;;;;;;2.38;1.70;;;25.10;94.40;;;;;;4975716;28;20057;-78
2022/08/07 10:08:52;;;;;;;3.67;2.15;;;25.20;93.30;;;;;;4992525;28;20092;-78
2022/08/07 10:11:36;;;;;;;2.42;1.55;;;25.00;93.10;;;;;;4965524;28;20050;-78
2022/08/07 10:14:33;;;;;;;3.30;1.65;;;24.90;93.10;;;;;;4972519;28;20064;-79
2022/08/07 10:17:25;;;;;;;2.75;1.70;;;25.10;93.50;;;;;;4973133;28;20106;-79
2022/08/07 10:19:59;;;;;;;2.50;1.40;;;25.30;92.50;;;;;;4974640;28;20096;-80
2022/08/07 10:22:28;;;;;;;4.32;1.92;;;25.40;91.90;;;;;;4987203;28;20834;-80
2022/08/07 10:25:06;;;;;;;1.90;1.40;;;25.30;92.60;;;;;;4964877;28;20104;-83
2022/08/07 10:27:39;;;;;;;3.00;1.88;;;25.50;91.70;;;;;;4991433;28;20050;-80
2022/08/07 10:30:11;;;;;;;3.28;2.03;;;25.30;91.70;;;;;;4988614;28;20045;-78
2022/08/07 10:32:53;;;;;;;3.20;1.80;;;25.40;92.00;;;;;;4990141;28;20043;-78
2022/08/07 10:35:49;;;;;;;5.32;2.30;;;25.40;91.70;;;;;;4981597;28;20057;-79
2022/08/07 10:38:39;;;;;;;3.92;2.00;;;25.60;91.70;;;;;;4990344;28;21323;-79
2022/08/07 10:41:15;;;;;;;2.83;1.73;;;25.90;91.70;;;;;;4962328;28;20100;-78
2022/08/07 10:44:20;;;;;;;3.45;1.90;;;26.00;91.50;;;;;;4991050;28;20042;-84
2022/08/07 10:46:58;;;;;;;2.95;2.08;;;26.30;90.50;;;;;;4959932;28;20112;-78
2022/08/07 10:49:45;;;;;;;3.10;1.88;;;26.30;90.50;;;;;;5003817;28;20061;-78
2022/08/07 10:52:24;;;;;;;4.85;1.92;;;26.10;90.10;;;;;;4995119;28;20046;-79
2022/08/07 10:55:02;;;;;;;3.97;1.80;;;26.10;90.80;;;;;;4996748;28;20499;-77
2022/08/07 10:57:49;;;;;;;3.25;1.80;;;26.20;90.80;;;;;;4999282;28;20089;-79
2022/08/07 11:00:17;;;;;;;2.45;1.70;;;26.30;90.20;;;;;;5002580;28;20077;-80
2022/08/07 11:03:01;;;;;;;2.70;1.92;;;26.50;90.60;;;;;;4976259;28;20042;-79
2022/08/07 11:06:07;;;;;;;3.13;2.03;;;26.50;90.50;;;;;;4986635;28;20099;-79
2022/08/07 11:08:39;;;;;;;2.83;1.83;;;26.60;88.70;;;;;;4992114;28;20121;-79
2022/08/07 11:11:26;;;;;;;2.90;1.90;;;26.40;90.00;;;;;;4987061;28;20046;-80
2022/08/07 11:14:29;;;;;;;3.05;1.75;;;26.30;90.10;;;;;;5000791;28;20049;-79
2022/08/07 11:17:04;;;;;;;2.85;1.90;;;26.00;89.90;;;;;;4974704;28;20058;-78
2022/08/07 11:19:43;;;;;;;3.08;1.92;;;26.20;90.50;;;;;;5003477;28;20092;-77
2022/08/07 11:22:34;;;;;;;3.15;2.00;;;26.30;90.40;;;;;;5002693;28;20046;-79
2022/08/07 11:25:06;;;;;;;3.10;1.88;;;26.30;90.20;;;;;;4991208;28;20064;-78
2022/08/07 11:27:48;;;;;;;3.17;2.10;;;26.50;90.20;;;;;;4987799;28;20078;-78
2022/08/07 11:30:17;;;;;;;2.70;1.60;;;26.70;89.00;;;;;;5003328;28;20125;-79
2022/08/07 11:32:47;;;;;;;3.55;2.00;;;26.70;89.80;;;;;;4982594;28;20081;-77
2022/08/07 11:35:24;;;;;;;3.88;1.88;;;26.70;89.00;;;;;;5001421;28;20121;-78
2022/08/07 11:38:13;;;;;;;2.55;1.80;;;26.70;89.30;;;;;;4985004;28;20440;-80
2022/08/07 11:40:55;;;;;;;2.70;1.88;;;26.60;86.90;;;;;;4991165;28;20136;-79
2022/08/07 11:43:27;;;;;;;3.20;2.00;;;26.30;88.00;;;;;;4985864;28;20042;-79
2022/08/07 11:46:30;;;;;;;2.30;1.75;;;26.30;89.20;;;;;;4986770;28;20548;-79
2022/08/07 11:49:25;;;;;;;2.75;1.80;;;26.10;88.70;;;;;;4993648;28;20061;-79
2022/08/07 11:52:19;;;;;;;3.55;1.98;;;26.30;88.60;;;;;;5007481;28;20045;-80
2022/08/07 11:55:14;;;;;;;3.13;1.92;;;26.10;88.20;;;;;;4996214;28;20042;-77
2022/08/07 11:58:01;;;;;;;2.77;2.20;;;25.80;88.90;;;;;;4979054;28;20053;-78
2022/08/07 12:00:42;;;;;;;4.28;1.90;;;25.50;89.20;;;;;;4983034;28;20315;-79
2022/08/07 12:03:37;;;;;;;2.13;1.80;;;25.60;90.30;;;;;;5002732;28;20188;-78
2022/08/07 12:06:21;;;;;;;3.27;2.10;;;26.00;90.50;;;;;;5002172;28;20045;-80
2022/08/07 12:09:06;;;;;;;3.33;1.95;;;26.40;89.90;;;;;;5003039;28;20053;-77
2022/08/07 12:11:45;;;;;;;2.88;1.98;;;26.30;89.30;;;;;;5003970;28;20061;-78
2022/08/07 12:14:17;;;;;;;3.22;1.90;;;26.40;89.10;;;;;;5001485;28;20447;-75
2022/08/07 12:16:50;;;;;;;2.75;1.70;;;26.60;89.60;;;;;;5004219;28;20041;-76
2022/08/07 12:19:38;;;;;;;3.72;1.60;;;26.60;88.40;;;;;;4992927;28;20064;-76
2022/08/07 12:22:18;;;;;;;2.78;1.67;;;26.80;88.60;;;;;;4974218;28;20053;-79
2022/08/07 12:28:19;;;;;;;3.38;1.60;;;27.00;86.70;;;;;;4974196;28;20077;-76
2022/08/07 12:30:49;;;;;;;2.53;1.52;;;26.80;87.90;;;;;;4994346;28;20061;-74
2022/08/07 12:33:20;;;;;;;4.20;1.75;;;26.50;87.90;;;;;;4994708;28;20188;-78
2022/08/07 12:35:49;;;;;;;3.25;1.60;;;26.30;88.40;;;;;;4994030;28;20054;-76
2022/08/07 12:38:16;;;;;;;3.85;1.63;;;25.80;87.80;;;;;;5000329;28;20192;-76
2022/08/07 12:40:45;;;;;;;3.53;1.77;;;25.40;88.10;;;;;;4978044;28;20511;-74
2022/08/07 12:43:13;;;;;;;1.90;1.30;;;25.10;88.10;;;;;;5000895;28;20492;-76
2022/08/07 12:46:01;;;;;;;3.10;1.40;;;24.80;88.80;;;;;;4988555;28;20073;-77
2022/08/07 12:49:01;;;;;;;4.10;1.60;;;24.70;88.20;;;;;;4991206;28;20116;-76
2022/08/07 12:51:36;;;;;;;1.85;1.30;;;24.60;89.00;;;;;;4985696;28;20130;-77
2022/08/07 12:54:19;;;;;;;5.03;1.20;;;24.90;90.00;;;;;;5002999;28;20561;-77
2022/08/07 12:56:50;;;;;;;2.75;1.40;;;25.50;89.40;;;;;;5002196;28;20156;-75
2022/08/07 12:59:27;;;;;;;2.65;1.23;;;25.80;87.70;;;;;;5002081;28;20163;-75
2022/08/07 13:02:23;;;;;;;4.38;1.45;;;26.10;87.80;;;;;;5000830;28;20107;-75
2022/08/07 13:05:07;;;;;;;3.15;1.80;;;26.20;87.30;;;;;;4985637;28;20776;-76
2022/08/07 13:07:55;;;;;;;2.35;1.40;;;25.70;87.10;;;;;;5003037;28;20044;-76
2022/08/07 13:10:31;;;;;;;3.30;1.17;;;25.20;88.10;;;;;;5002518;28;20049;-76
2022/08/07 13:13:15;;;;;;;4.60;1.45;;;24.80;89.20;;;;;;5002408;28;20099;-76
2022/08/07 13:15:52;;;;;;;4.13;1.67;;;24.60;90.00;;;;;;5002338;28;20046;-76
2022/08/07 13:18:24;;;;;;;4.18;1.80;;;24.20;90.30;;;;;;4999722;28;20406;-77
2022/08/07 13:21:03;;;;;;;2.92;1.90;;;24.00;91.20;;;;;;4999684;28;20053;-78
2022/08/07 13:23:44;;;;;;;3.47;1.80;;;23.90;91.50;;;;;;4986485;28;20629;-78
2022/08/07 13:26:21;;;;;;;4.25;1.90;;;23.90;91.90;;;;;;4988632;28;20052;-79